Time;durP1;ratioP1;P1;durP2;ratioP2;P2;SDS_P1;SDS_P2;PMS_P1;PMS_P2;Temp;Humidity;BMP_temperature;BMP_pressure;BME280_temperature;BME280_humidity;BME280_pressure;Samples;Min_cycle;Max_cycle;Signal;HPM_P1;HPM_P2
2024/03/20 06:44:00;;;;;;;;;;;;;;;7.22;100.00;99902.25;5524193;23;20497;-80
2024/03/20 06:46:26;;;;;;;;;;;;;;;7.21;100.00;99900.53;4987140;28;19929;-81
2024/03/20 06:48:52;;;;;;;;;;;;;;;7.19;100.00;99903.19;4992555;28;19917;-80
2024/03/20 06:51:20;;;;;;;;;;;;;;;7.20;100.00;99904.09;4992462;28;19976;-79
2024/03/20 06:53:45;;;;;;;;;;;;;;;7.23;100.00;99898.75;4992484;28;19921;-78
2024/03/20 06:56:11;;;;;;;;;;;;;;;7.19;100.00;99907.63;4992580;28;19918;-80
2024/03/20 06:58:36;;;;;;;;;;;;;;;7.21;100.00;99903.16;4991247;28;19969;-81
2024/03/20 07:01:02;;;;;;;;;;;;;;;7.20;100.00;99909.38;4992394;28;20361;-79
2024/03/20 07:03:28;;;;;;;;;;;;;;;7.21;100.00;99906.69;4992234;28;19918;-79
2024/03/20 07:05:54;;;;;;;;;;;;;;;7.21;100.00;99911.97;4992409;28;20380;-78
2024/03/20 07:08:20;;;;;;;;;;;;;;;7.22;100.00;99907.53;4992342;28;19925;-83
2024/03/20 07:10:45;;;;;;;;;;;;;;;7.23;100.00;99909.28;4992283;28;19922;-80
2024/03/20 07:13:10;;;;;;;;;;;;;;;7.20;100.00;99906.72;4991241;28;19964;-79
2024/03/20 07:15:36;;;;;;;;;;;;;;;7.23;100.00;99909.28;4992356;28;19921;-81
2024/03/20 07:18:02;;;;;;;;;;;;;;;7.24;100.00;99916.25;4991477;28;20441;-80
2024/03/20 07:20:27;;;;;;;;;;;;;;;7.20;100.00;99904.94;4992144;28;19922;-80
2024/03/20 07:22:52;;;;;;;;;;;;;;;7.24;100.00;99919.78;4992217;28;20288;-79
2024/03/20 07:25:18;;;;;;;;;;;;;;;7.23;100.00;99911.91;4992134;28;19925;-80
2024/03/20 07:27:43;;;;;;;;;;;;;;;7.24;100.00;99905.72;4990960;28;20034;-81
2024/03/20 07:30:09;;;;;;;;;;;;;;;7.24;100.00;99908.34;4975208;28;19929;-79
2024/03/20 07:32:35;;;;;;;;;;;;;;;7.26;100.00;99903.94;4995719;28;19945;-80
2024/03/20 07:35:01;;;;;;;;;;;;;;;7.24;100.00;99914.50;4978226;28;19918;-79
2024/03/20 07:37:26;;;;;;;;;;;;;;;7.26;100.00;99912.69;4995631;28;20295;-79
2024/03/20 07:39:52;;;;;;;;;;;;;;;7.26;100.00;99914.47;4995449;28;19964;-80
2024/03/20 07:42:17;;;;;;;;;;;;;;;7.28;100.00;99907.38;4995561;28;20584;-80
2024/03/20 07:44:42;;;;;;;;;;;;;;;7.27;100.00;99911.78;4985276;28;20063;-80
2024/03/20 07:47:08;;;;;;;;;;;;;;;7.33;100.00;99921.28;4975955;28;20000;-80
2024/03/20 07:49:33;;;;;;;;;;;;;;;7.31;100.00;99920.47;4976032;28;20013;-80
2024/03/20 07:51:58;;;;;;;;;;;;;;;7.34;100.00;99916.88;4975888;28;19922;-80
2024/03/20 07:54:24;;;;;;;;;;;;;;;7.37;100.00;99922.94;4975051;28;19918;-79
2024/03/20 07:56:51;;;;;;;;;;;;;;;7.36;100.00;99915.06;4975754;28;19937;-81
2024/03/20 07:59:17;;;;;;;;;;;;;;;7.36;100.00;99921.22;4973119;28;19957;-81
2024/03/20 08:01:42;;;;;;;;;;;;;;;7.37;100.00;99919.44;4958115;28;19961;-80
2024/03/20 08:04:07;;;;;;;;;;;;;;;7.38;100.00;99919.38;4975504;28;20404;-80
2024/03/20 08:06:33;;;;;;;;;;;;;;;7.36;100.00;99920.34;4975778;28;19922;-79
2024/03/20 08:08:58;;;;;;;;;;;;;;;7.36;100.00;99921.22;4975419;28;19914;-80
2024/03/20 08:11:23;;;;;;;;;;;;;;;7.35;100.00;99919.47;4975506;28;19918;-79
2024/03/20 08:13:49;;;;;;;;;;;;;;;7.37;100.00;99924.69;4974229;28;20296;-79
2024/03/20 08:16:14;;;;;;;;;;;;;;;7.36;100.00;99926.47;4975429;28;19960;-80
2024/03/20 08:18:40;;;;;;;;;;;;;;;7.34;100.00;99924.78;4975575;28;20359;-80
2024/03/20 08:21:05;;;;;;;;;;;;;;;7.37;100.00;99928.22;4975333;28;20362;-82
2024/03/20 08:23:30;;;;;;;;;;;;;;;7.40;100.00;99921.97;4957867;28;19929;-81
2024/03/20 08:25:57;;;;;;;;;;;;;;;7.40;100.00;99924.63;4975236;28;19941;-80
2024/03/20 08:28:22;;;;;;;;;;;;;;;7.42;100.00;99928.94;4956521;28;19918;-82
2024/03/20 08:30:49;;;;;;;;;;;;;;;7.44;100.00;99935.03;4957961;28;19926;-81
2024/03/20 08:33:15;;;;;;;;;;;;;;;7.48;100.00;99940.22;4957745;28;19919;-82
2024/03/20 08:35:40;;;;;;;;;;;;;;;7.48;100.00;99937.59;4975028;28;20270;-81
2024/03/20 08:38:06;;;;;;;;;;;;;;;7.45;100.00;99938.53;4974826;28;20001;-83
2024/03/20 08:40:32;;;;;;;;;;;;;;;7.48;100.00;99929.69;4957510;28;19915;-81
2024/03/20 08:42:58;;;;;;;;;;;;;;;7.46;100.00;99930.56;4971602;28;19926;-80
2024/03/20 08:45:23;;;;;;;;;;;;;;;7.50;100.00;99930.50;4964481;28;19926;-81
2024/03/20 08:47:49;;;;;;;;;;;;;;;7.51;100.00;99929.59;4984146;28;19956;-81
2024/03/20 08:50:14;;;;;;;;;;;;;;;7.51;100.00;99927.81;4984082;28;19957;-81
2024/03/20 08:52:40;;;;;;;;;;;;;;;7.52;100.00;99928.69;4984637;28;20293;-81
2024/03/20 08:55:06;;;;;;;;;;;;;;;7.52;100.00;99920.78;4983801;28;20254;-86
2024/03/20 08:57:31;;;;;;;;;;;;;;;7.55;100.00;99918.06;4982620;28;19929;-84
2024/03/20 08:59:57;;;;;;;;;;;;;;;7.52;100.00;99910.25;4982377;28;19925;-83
2024/03/20 09:02:22;;;;;;;;;;;;;;;7.53;100.00;99911.94;4984384;28;19926;-82
2024/03/20 09:04:47;;;;;;;;;;;;;;;7.55;100.00;99920.72;4984121;28;19924;-80
2024/03/20 09:07:13;;;;;;;;;;;;;;;7.56;100.00;99922.41;4983902;28;19922;-80
2024/03/20 09:09:38;;;;;;;;;;;;;;;7.57;100.00;99919.72;4984438;28;20281;-88
2024/03/20 09:12:04;;;;;;;;;;;;;;;7.60;100.00;99918.78;4984272;28;19953;-80
2024/03/20 09:14:30;;;;;;;;;;;;;;;7.64;100.00;99913.41;4982427;28;20020;-80
2024/03/20 09:16:55;;;;;;;;;;;;;;;7.62;100.00;99914.34;4983849;28;19924;-79
2024/03/20 09:19:21;;;;;;;;;;;;;;;7.63;100.00;99905.53;4984358;28;19921;-81
2024/03/20 09:21:46;;;;;;;;;;;;;;;7.64;100.00;99901.97;4984013;28;20010;-81
2024/03/20 09:24:15;;;;;;;;;;;;;;;7.65;100.00;99895.78;4983326;28;19922;-81
2024/03/20 09:26:40;;;;;;;;;;;;;;;7.67;100.00;99896.59;4983564;28;19918;-80
2024/03/20 09:29:05;;;;;;;;;;;;;;;7.67;100.00;99893.09;4982365;28;19929;-80
2024/03/20 09:31:30;;;;;;;;;;;;;;;7.71;100.00;99889.47;4983796;28;20361;-86
2024/03/20 09:33:57;;;;;;;;;;;;;;;7.70;100.00;99896.50;4982553;28;20369;-81
2024/03/20 09:36:23;;;;;;;;;;;;;;;7.71;100.00;99895.59;4981359;28;20432;-80
2024/03/20 09:38:48;;;;;;;;;;;;;;;7.75;100.00;99891.94;4983359;28;19923;-81
2024/03/20 09:41:14;;;;;;;;;;;;;;;7.80;100.00;99891.81;4983176;28;20020;-81
2024/03/20 09:43:39;;;;;;;;;;;;;;;7.75;100.00;99886.69;4982194;28;20053;-81
2024/03/20 09:46:05;;;;;;;;;;;;;;;7.78;100.00;99889.22;4983787;28;20017;-80
2024/03/20 09:48:32;;;;;;;;;;;;;;;7.75;100.00;99888.47;4983497;28;19925;-80
2024/03/20 09:50:58;;;;;;;;;;;;;;;7.78;100.00;99891.88;4998622;28;19922;-79
2024/03/20 09:53:23;;;;;;;;;;;;;;;7.79;100.00;99885.69;4981667;28;20001;-80
2024/03/20 09:55:49;;;;;;;;;;;;;;;7.81;100.00;99883.88;4983244;28;19925;-80
2024/03/20 09:58:14;;;;;;;;;;;;;;;7.85;100.00;99889.03;4982353;28;19922;-80
2024/03/20 10:00:40;;;;;;;;;;;;;;;7.81;100.00;99878.59;4983476;28;20012;-80
2024/03/20 10:03:05;;;;;;;;;;;;;;;7.82;100.00;99872.41;4982827;28;19969;-81
2024/03/20 10:05:30;;;;;;;;;;;;;;;7.87;100.00;99867.00;4983209;28;19918;-80
2024/03/20 10:07:57;;;;;;;;;;;;;;;7.86;100.00;99867.91;4983420;28;19933;-85
2024/03/20 10:10:22;;;;;;;;;;;;;;;7.88;100.00;99859.94;4983131;28;19918;-81
2024/03/20 10:12:49;;;;;;;;;;;;;;;7.89;100.00;99856.41;4980908;28;19917;-81
2024/03/20 10:15:21;;;;;;;;;;;;;;;7.89;100.00;99857.25;4981977;28;19934;-80
2024/03/20 10:17:47;;;;;;;;;;;;;;;7.91;100.00;99850.16;4982576;28;19922;-80
2024/03/20 10:20:14;;;;;;;;;;;;;;;7.92;100.00;99853.66;4982882;28;20336;-81
2024/03/20 10:22:40;;;;;;;;;;;;;;;7.95;100.00;99861.50;4983006;28;20049;-81
2024/03/20 10:25:07;;;;;;;;;;;;;;;7.96;100.00;99853.53;4988851;28;19922;-81
2024/03/20 10:27:32;;;;;;;;;;;;;;;7.99;100.00;99845.53;4982388;28;19924;-80
2024/03/20 10:29:59;;;;;;;;;;;;;;;7.98;100.00;99850.84;4981844;28;20395;-81
2024/03/20 10:32:25;;;;;;;;;;;;;;;8.01;100.00;99853.38;4983050;28;19958;-79
2024/03/20 10:34:53;;;;;;;;;;;;;;;8.01;100.00;99856.03;4983238;28;19974;-81
2024/03/20 10:37:19;;;;;;;;;;;;;;;8.04;100.00;99844.50;4982133;28;19965;-81
2024/03/20 10:39:45;;;;;;;;;;;;;;;8.05;100.00;99849.72;4982831;28;19956;-81
2024/03/20 10:42:11;;;;;;;;;;;;;;;8.07;100.00;99847.91;4983271;28;20280;-80
2024/03/20 10:44:36;;;;;;;;;;;;;;;8.10;100.00;99850.44;4984879;28;19922;-81
2024/03/20 10:47:01;;;;;;;;;;;;;;;8.12;100.00;99838.06;4987295;28;19925;-83
2024/03/20 10:49:27;;;;;;;;;;;;;;;8.16;100.00;99836.19;4991218;28;20357;-85
2024/03/20 10:51:54;;;;;;;;;;;;;;;8.17;100.00;99836.16;4990722;28;19972;-80
2024/03/20 10:54:20;;;;;;;;;;;;;;;8.17;100.00;99836.16;4991162;28;19969;-80
2024/03/20 10:56:49;;;;;;;;;;;;;;;8.21;100.00;99836.91;4979922;28;20407;-81
2024/03/20 10:59:17;;;;;;;;;;;;;;;8.26;100.00;99834.13;4987881;28;19924;-80
2024/03/20 11:02:03;;;;;;;;;;;;;;;8.28;100.00;99834.91;4992463;28;20012;-81
2024/03/20 11:04:31;;;;;;;;;;;;;;;8.29;100.00;99834.88;4991334;28;20262;-81
2024/03/20 11:06:58;;;;;;;;;;;;;;;8.31;100.00;99829.53;4996113;28;19969;-80
2024/03/20 11:09:26;;;;;;;;;;;;;;;8.31;100.00;99829.53;4978560;28;20361;-81
2024/03/20 11:11:52;;;;;;;;;;;;;;;8.32;100.00;99823.34;4996113;28;19968;-80
2024/03/20 11:14:24;;;;;;;;;;;;;;;8.37;100.00;99826.72;4991670;28;19918;-81
2024/03/20 11:16:51;;;;;;;;;;;;;;;8.37;100.00;99826.72;4985004;28;19969;-81
2024/03/20 11:19:16;;;;;;;;;;;;;;;8.37;100.00;99827.56;4988603;28;19922;-80
2024/03/20 11:21:41;;;;;;;;;;;;;;;8.39;100.00;99827.50;4995948;28;20392;-81
2024/03/20 11:24:07;;;;;;;;;;;;;;;8.40;100.00;99826.59;4995634;28;20396;-81
2024/03/20 11:26:34;;;;;;;;;;;;;;;8.43;100.00;99826.53;4995753;28;19969;-83
2024/03/20 11:29:01;;;;;;;;;;;;;;;8.44;100.00;99824.75;4988356;28;20439;-81
2024/03/20 11:31:26;;;;;;;;;;;;;;;8.47;100.00;99828.19;4987604;28;20020;-80
2024/03/20 11:33:51;;;;;;;;;;;;;;;8.49;100.00;99828.13;4986859;28;20034;-81
2024/03/20 11:36:18;;;;;;;;;;;;;;;8.50;100.00;99830.72;4985931;28;19965;-80
2024/03/20 11:38:43;;;;;;;;;;;;;;;8.53;100.00;99827.09;4986260;28;19957;-80
2024/03/20 11:41:10;;;;;;;;;;;;;;;8.54;100.00;99831.47;4985777;28;20342;-80
2024/03/20 11:43:35;;;;;;;;;;;;;;;8.58;100.00;99833.06;4984229;28;19921;-80
2024/03/20 11:46:01;;;;;;;;;;;;;;;8.61;100.00;99837.41;4981168;28;20017;-80
2024/03/20 11:48:28;;;;;;;;;;;;;;;8.60;100.00;99830.38;4994158;28;20008;-81
2024/03/20 11:50:53;;;;;;;;;;;;;;;8.62;100.00;99839.13;4994368;28;19933;-80
2024/03/20 11:53:20;;;;;;;;;;;;;;;8.64;100.00;99830.22;4993506;28;19918;-81
2024/03/20 11:55:47;;;;;;;;;;;;;;;8.65;100.00;99831.09;4977052;28;19922;-81
2024/03/20 11:58:14;;;;;;;;;;;;;;;8.62;100.00;99826.78;4992216;28;20281;-82
2024/03/20 12:00:40;;;;;;;;;;;;;;;8.66;100.00;99827.53;4994031;28;19922;-79
2024/03/20 12:03:22;;;;;;;;;;;;;;;8.68;100.00;99823.06;4993798;28;19928;-80
2024/03/20 12:05:47;;;;;;;;;;;;;;;8.71;100.00;99820.31;4975621;28;20396;-80
2024/03/20 12:08:14;;;;;;;;;;;;;;;8.70;100.00;99823.88;4992486;28;20004;-79
2024/03/20 12:10:39;;;;;;;;;;;;;;;8.70;100.00;99819.44;4976858;28;20022;-81
2024/03/20 12:13:07;;;;;;;;;;;;;;;8.72;100.00;99822.91;4992712;28;20020;-78
2024/03/20 12:15:32;;;;;;;;;;;;;;;8.73;100.00;99818.50;4993454;28;20002;-79
2024/03/20 12:17:57;;;;;;;;;;;;;;;8.76;100.00;99818.38;4993206;28;20068;-80
2024/03/20 12:20:26;;;;;;;;;;;;;;;8.76;100.00;99815.75;4993185;28;19922;-80
2024/03/20 12:22:51;;;;;;;;;;;;;;;8.76;100.00;99813.09;4992808;28;19934;-80
2024/03/20 12:25:16;;;;;;;;;;;;;;;8.82;100.00;99814.66;4993748;28;19925;-81
2024/03/20 12:27:42;;;;;;;;;;;;;;;8.83;100.00;99814.59;4992217;28;19929;-80
2024/03/20 12:30:10;;;;;;;;;;;;;;;8.83;100.00;99804.03;4993672;28;20470;-80
2024/03/20 12:32:36;;;;;;;;;;;;;;;8.85;100.00;99802.19;4992466;28;19925;-81
2024/03/20 12:35:02;;;;;;;;;;;;;;;8.89;100.00;99801.19;4992423;28;19921;-81
2024/03/20 12:37:29;;;;;;;;;;;;;;;8.87;100.00;99795.09;4976243;28;20006;-80
2024/03/20 12:39:54;;;;;;;;;;;;;;;8.91;100.00;99796.69;4993696;28;19925;-80
2024/03/20 12:42:44;;;;;;;;;;;;;;;8.95;100.00;99791.28;4993213;28;19922;-84
2024/03/20 12:45:13;;;;;;;;;;;;;;;8.97;100.00;99794.78;4972078;28;19922;-81
2024/03/20 12:47:41;;;;;;;;;;;;;;;8.97;100.00;99792.13;4972149;28;19926;-80
2024/03/20 12:50:11;;;;;;;;;;;;;;;8.94;100.00;99789.59;4972328;28;19961;-79
2024/03/20 12:52:36;;;;;;;;;;;;;;;8.94;100.00;99787.81;4972126;28;19918;-81
2024/03/20 12:55:02;;;;;;;;;;;;;;;9.01;100.00;99793.72;4972241;28;19968;-80
2024/03/20 12:57:28;;;;;;;;;;;;;;;9.02;100.00;99792.81;4957026;28;19922;-81
2024/03/20 12:59:53;;;;;;;;;;;;;;;9.02;100.00;99787.53;4971283;28;20432;-80
2024/03/20 13:02:19;;;;;;;;;;;;;;;9.00;100.00;99784.94;4972602;28;19929;-80
2024/03/20 13:04:45;;;;;;;;;;;;;;;9.04;100.00;99783.03;4972493;28;19918;-80
2024/03/20 13:07:14;;;;;;;;;;;;;;;9.07;100.00;99772.34;4972712;28;19919;-81
2024/03/20 13:09:39;;;;;;;;;;;;;;;9.10;100.00;99774.88;4972009;28;20309;-80
2024/03/20 13:12:04;;;;;;;;;;;;;;;9.39;100.00;99765.00;4956606;28;20021;-82
2024/03/20 13:14:30;;;;;;;;;;;;;;;9.26;100.00;99762.81;4970948;28;19932;-80
2024/03/20 13:16:56;;;;;;;;;;;;;;;9.22;100.00;99757.69;4956601;28;20290;-80
2024/03/20 13:19:23;;;;;;;;;;;;;;;9.19;100.00;99758.69;4972853;28;19922;-80
2024/03/20 13:21:49;;;;;;;;;;;;;;;9.19;100.00;99761.34;4971202;28;19950;-79
2024/03/20 13:24:14;;;;;;;;;;;;;;;9.20;100.00;99760.41;4971685;28;20016;-80
2024/03/20 13:26:40;;;;;;;;;;;;;;;9.19;100.00;99760.44;4971859;28;20001;-80
2024/03/20 13:29:06;;;;;;;;;;;;;;;9.21;100.00;99750.69;4970025;28;20026;-80
2024/03/20 13:31:32;;;;;;;;;;;;;;;9.20;100.00;99748.97;4956639;28;19922;-80
2024/03/20 13:33:57;;;;;;;;;;;;;;;9.22;100.00;99750.66;4971340;28;20492;-79
2024/03/20 13:36:23;;;;;;;;;;;;;;;9.20;100.00;99749.81;4971528;28;19922;-80
2024/03/20 13:39:11;;;;;;;;;;;;;;;9.23;100.00;99747.06;4971876;28;19918;-80
2024/03/20 13:41:45;;;;;;;;;;;;;;;9.25;100.00;99747.88;4971541;28;19924;-80
2024/03/20 13:44:23;;;;;;;;;;;;;;;9.27;100.00;99740.75;4955556;28;20378;-79
2024/03/20 13:46:49;;;;;;;;;;;;;;;9.27;100.00;99745.19;4991578;28;19925;-80
2024/03/20 13:49:16;;;;;;;;;;;;;;;9.27;100.00;99745.19;4975588;28;19918;-80
2024/03/20 13:51:41;;;;;;;;;;;;;;;9.32;100.00;99739.69;4992493;28;19917;-79
2024/03/20 13:54:07;;;;;;;;;;;;;;;9.32;100.00;99742.34;4993103;28;20284;-81
2024/03/20 13:56:33;;;;;;;;;;;;;;;9.31;100.00;99738.00;4993042;28;19941;-82
2024/03/20 13:58:59;;;;;;;;;;;;;;;9.30;100.00;99742.41;4990508;28;19968;-80
2024/03/20 14:01:26;;;;;;;;;;;;;;;9.29;100.00;99730.13;4993014;28;19945;-81
2024/03/20 14:03:52;;;;;;;;;;;;;;;9.32;100.00;99737.06;4991910;28;19940;-78
2024/03/20 14:06:21;;;;;;;;;;;;;;;9.34;100.00;99729.94;4993022;28;20289;-80
2024/03/20 14:08:50;;;;;;;;;;;;;;;9.34;100.00;99730.78;4992800;28;19922;-81
2024/03/20 14:11:19;;;;;;;;;;;;;;;9.37;100.00;99730.69;4992592;28;19968;-80
2024/03/20 14:13:44;;;;;;;;;;;;;;;9.35;100.00;99721.06;4991088;28;19925;-81
2024/03/20 14:16:19;;;;;;;;;;;;;;;9.39;100.00;99712.97;4992561;28;19922;-81
2024/03/20 14:18:45;;;;;;;;;;;;;;;9.38;100.00;99720.94;4975312;28;19929;-81
2024/03/20 14:21:10;;;;;;;;;;;;;;;9.42;100.00;99714.63;4975346;28;20009;-80
2024/03/20 14:23:36;;;;;;;;;;;;;;;9.38;100.00;99720.94;4992641;28;20025;-81
2024/03/20 14:26:01;;;;;;;;;;;;;;;9.36;100.00;99709.59;4992741;28;19917;-80
2024/03/20 14:28:27;;;;;;;;;;;;;;;9.41;100.00;99718.19;4991369;28;19918;-81
2024/03/20 14:30:53;;;;;;;;;;;;;;;9.42;100.00;99717.28;4991973;28;19928;-79
2024/03/20 14:33:18;;;;;;;;;;;;;;;9.44;100.00;99716.31;4991848;28;20266;-80
2024/03/20 14:35:44;;;;;;;;;;;;;;;9.40;100.00;99713.84;4992314;28;19925;-80
2024/03/20 14:38:30;;;;;;;;;;;;;;;9.46;100.00;99710.94;4992652;28;20004;-80
2024/03/20 14:40:57;;;;;;;;;;;;;;;9.43;100.00;99711.09;4994562;28;19925;-82
2024/03/20 14:43:25;;;;;;;;;;;;;;;9.40;100.00;99704.13;4995328;28;19917;-84
2024/03/20 14:45:51;;;;;;;;;;;;;;;9.51;100.00;99706.34;4969734;28;20422;-79
2024/03/20 14:48:16;;;;;;;;;;;;;;;9.46;100.00;99703.00;4979900;28;20010;-79
2024/03/20 14:50:45;;;;;;;;;;;;;;;9.47;100.00;99707.38;4986557;28;20267;-80
2024/03/20 14:53:10;;;;;;;;;;;;;;;9.49;100.00;99705.53;4986807;28;19921;-80
2024/03/20 14:55:36;;;;;;;;;;;;;;;9.48;100.00;99701.16;4987067;28;19968;-80
2024/03/20 14:58:01;;;;;;;;;;;;;;;9.50;100.00;99694.03;4985219;28;20281;-80
2024/03/20 15:00:28;;;;;;;;;;;;;;;9.46;100.00;99697.72;4986436;28;19929;-81
2024/03/20 15:02:53;;;;;;;;;;;;;;;9.50;100.00;99698.47;4986314;28;19926;-81
2024/03/20 15:05:20;;;;;;;;;;;;;;;9.50;100.00;99696.69;4986706;28;19918;-81
2024/03/20 15:07:46;;;;;;;;;;;;;;;9.54;100.00;99694.75;4985254;28;19918;-86
2024/03/20 15:10:11;;;;;;;;;;;;;;;9.53;100.00;99691.25;4985009;28;20392;-81
2024/03/20 15:12:37;;;;;;;;;;;;;;;9.54;100.00;99690.34;4985868;28;19925;-82
2024/03/20 15:15:02;;;;;;;;;;;;;;;9.55;100.00;99692.06;4986131;28;20021;-80
2024/03/20 15:17:27;;;;;;;;;;;;;;;9.59;100.00;99687.53;4984763;28;20485;-81
2024/03/20 15:19:53;;;;;;;;;;;;;;;9.60;100.00;99681.28;4986213;28;20008;-82
2024/03/20 15:22:19;;;;;;;;;;;;;;;9.59;100.00;99683.09;4986088;28;19929;-80
2024/03/20 15:24:44;;;;;;;;;;;;;;;9.61;100.00;99689.16;4986132;28;20281;-82
2024/03/20 15:27:12;;;;;;;;;;;;;;;9.66;100.00;99688.13;4986530;28;19925;-81
2024/03/20 15:29:38;;;;;;;;;;;;;;;9.69;100.00;99682.72;4983896;28;19974;-80
2024/03/20 15:32:03;;;;;;;;;;;;;;;9.64;100.00;99678.47;4984520;28;20021;-81
2024/03/20 15:34:28;;;;;;;;;;;;;;;9.65;100.00;99687.25;4986786;28;19925;-80
2024/03/20 15:36:54;;;;;;;;;;;;;;;9.64;100.00;99690.84;4985922;28;20051;-82
2024/03/20 15:39:25;;;;;;;;;;;;;;;9.66;100.00;99691.63;4985473;28;19928;-85
2024/03/20 15:41:51;;;;;;;;;;;;;;;9.65;100.00;99692.53;4984673;28;20499;-81
2024/03/20 15:44:17;;;;;;;;;;;;;;;9.68;100.00;99686.28;4984134;28;19922;-81
2024/03/20 15:46:45;;;;;;;;;;;;;;;9.70;100.00;99689.72;4986078;28;19918;-81
2024/03/20 15:49:11;;;;;;;;;;;;;;;9.73;100.00;99684.28;4985076;28;20068;-82
2024/03/20 15:51:36;;;;;;;;;;;;;;;9.71;100.00;99680.88;4985431;28;20438;-81
2024/03/20 15:54:01;;;;;;;;;;;;;;;9.71;100.00;99684.34;4985883;28;20432;-81
2024/03/20 15:56:27;;;;;;;;;;;;;;;9.71;100.00;99680.88;4985375;28;19914;-80
2024/03/20 15:58:52;;;;;;;;;;;;;;;9.72;100.00;99682.59;4983974;28;19922;-81
2024/03/20 16:01:19;;;;;;;;;;;;;;;9.71;100.00;99675.56;4985477;28;19914;-81
2024/03/20 16:03:45;;;;;;;;;;;;;;;9.72;100.00;99675.50;4985088;28;19925;-81
2024/03/20 16:06:14;;;;;;;;;;;;;;;9.74;100.00;99678.09;4984242;28;20174;-81
2024/03/20 16:08:40;;;;;;;;;;;;;;;9.70;100.00;99680.00;4985804;28;19921;-81
2024/03/20 16:11:05;;;;;;;;;;;;;;;9.75;100.00;99671.88;4985394;28;19918;-80
2024/03/20 16:13:32;;;;;;;;;;;;;;;9.77;100.00;99670.03;4981406;28;19921;-81
2024/03/20 16:15:58;;;;;;;;;;;;;;;9.77;100.00;99670.88;4985127;28;19954;-80
2024/03/20 16:18:23;;;;;;;;;;;;;;;9.82;100.00;99674.19;4985599;28;20035;-83
2024/03/20 16:20:48;;;;;;;;;;;;;;;9.79;100.00;99673.47;4983630;28;19977;-81
2024/03/20 16:23:13;;;;;;;;;;;;;;;9.80;100.00;99681.34;4984699;28;20337;-81
2024/03/20 16:25:39;;;;;;;;;;;;;;;9.80;100.00;99676.03;4984934;28;19918;-82
2024/03/20 16:28:04;;;;;;;;;;;;;;;9.80;100.00;99672.56;4983892;28;20507;-80
2024/03/20 16:30:32;;;;;;;;;;;;;;;9.81;100.00;99685.72;4984931;28;20281;-81
2024/03/20 16:32:57;;;;;;;;;;;;;;;9.81;100.00;99682.19;4984685;28;19929;-81
2024/03/20 16:35:22;;;;;;;;;;;;;;;9.85;100.00;99686.44;4984046;28;19921;-82
2024/03/20 16:37:48;;;;;;;;;;;;;;;9.85;100.00;99681.16;4984895;28;19922;-87
2024/03/20 16:40:14;;;;;;;;;;;;;;;9.86;100.00;99677.59;4984334;28;20381;-81
2024/03/20 16:42:40;;;;;;;;;;;;;;;9.85;100.00;99682.94;4983393;28;20001;-80
2024/03/20 16:45:11;;;;;;;;;;;;;;;9.88;100.00;99678.38;4988106;28;20360;-80
2024/03/20 16:47:40;;;;;;;;;;;;;;;9.89;100.00;99679.22;4992517;28;19972;-82
2024/03/20 16:50:06;;;;;;;;;;;;;;;9.88;100.00;99678.38;4991891;28;19977;-81
2024/03/20 16:52:31;;;;;;;;;;;;;;;9.88;100.00;99678.38;4992588;28;20328;-82
2024/03/20 16:54:57;;;;;;;;;;;;;;;9.88;100.00;99675.72;4994073;28;19922;-81
2024/03/20 16:57:22;;;;;;;;;;;;;;;9.90;100.00;99680.97;4994001;28;20284;-81
2024/03/20 16:59:53;;;;;;;;;;;;;;;9.88;100.00;99688.97;4992839;28;19918;-82
2024/03/20 17:02:19;;;;;;;;;;;;;;;9.91;100.00;99694.13;4990249;28;19924;-81
2024/03/20 17:04:45;;;;;;;;;;;;;;;9.93;100.00;99694.91;4982884;28;19918;-81
2024/03/20 17:07:10;;;;;;;;;;;;;;;9.93;100.00;99697.56;4984019;28;19918;-82
2024/03/20 17:09:39;;;;;;;;;;;;;;;9.94;100.00;99709.00;4984534;28;20423;-78
2024/03/20 17:12:08;;;;;;;;;;;;;;;9.95;100.00;99705.44;4982689;28;20370;-81
2024/03/20 17:14:34;;;;;;;;;;;;;;;9.94;100.00;99704.59;4982813;28;19918;-80
2024/03/20 17:16:59;;;;;;;;;;;;;;;9.96;100.00;99713.31;4984217;28;19918;-81
2024/03/20 17:19:27;;;;;;;;;;;;;;;9.95;100.00;99711.59;4983854;28;20263;-81
2024/03/20 17:21:55;;;;;;;;;;;;;;;10.14;100.00;99721.44;4992710;28;20420;-81
2024/03/20 17:24:22;;;;;;;;;;;;;;;10.21;100.00;99717.59;4993740;28;19924;-80
2024/03/20 17:26:47;;;;;;;;;;;;;;;10.10;100.00;99712.75;4993529;28;20337;-80
2024/03/20 17:29:12;;;;;;;;;;;;;;;10.08;100.00;99725.19;4992115;28;19918;-81
2024/03/20 17:31:38;;;;;;;;;;;;;;;10.10;100.00;99723.34;4993600;28;19922;-81
2024/03/20 17:34:03;;;;;;;;;;;;;;;10.11;100.00;99730.34;4993315;28;20369;-79
2024/03/20 17:36:28;;;;;;;;;;;;;;;10.11;100.00;99732.16;4989638;28;19922;-80
2024/03/20 17:38:54;;;;;;;;;;;;;;;10.04;100.00;99733.34;4992236;28;20059;-81
2024/03/20 17:41:19;;;;;;;;;;;;;;;9.97;100.00;99732.69;4993338;28;20017;-83
2024/03/20 17:43:44;;;;;;;;;;;;;;;9.82;100.00;99736.84;4989532;28;20385;-81
2024/03/20 17:46:10;;;;;;;;;;;;;;;9.73;100.00;99734.56;4982939;28;20358;-81
2024/03/20 17:48:35;;;;;;;;;;;;;;;9.66;100.00;99736.59;4982742;28;19925;-82
2024/03/20 17:51:00;;;;;;;;;;;;;;;9.59;100.00;99741.28;4975389;28;19968;-82
2024/03/20 17:53:25;;;;;;;;;;;;;;;9.48;100.00;99750.53;4975403;28;20008;-79
2024/03/20 17:55:52;;;;;;;;;;;;;;;9.33;100.00;99749.38;4993076;28;19961;-80
2024/03/20 17:58:22;;;;;;;;;;;;;;;9.21;100.00;99740.97;4991718;28;19968;-80
2024/03/20 18:00:49;;;;;;;;;;;;;;;9.18;100.00;99748.16;4992283;28;20789;-81
2024/03/20 18:03:14;;;;;;;;;;;;;;;9.14;100.00;99749.19;4992807;28;19918;-85
2024/03/20 18:05:39;;;;;;;;;;;;;;;9.20;100.00;99760.41;4975454;28;19917;-83
2024/03/20 18:08:05;;;;;;;;;;;;;;;9.16;100.00;99758.81;4992756;28;20538;-82
2024/03/20 18:10:30;;;;;;;;;;;;;;;9.23;100.00;99762.94;4993060;28;20353;-84
2024/03/20 18:12:56;;;;;;;;;;;;;;;9.41;100.00;99763.16;4990784;28;19926;-80
2024/03/20 18:15:21;;;;;;;;;;;;;;;9.56;100.00;99773.16;4974921;28;20001;-80
2024/03/20 18:17:47;;;;;;;;;;;;;;;9.68;100.00;99766.50;4992763;28;19917;-81
2024/03/20 18:20:12;;;;;;;;;;;;;;;9.77;100.00;99765.28;4992567;28;19964;-80
2024/03/20 18:22:38;;;;;;;;;;;;;;;9.84;100.00;99769.41;4992432;28;20013;-82
2024/03/20 18:25:04;;;;;;;;;;;;;;;9.91;100.00;99770.03;4975241;28;19933;-80
2024/03/20 18:27:29;;;;;;;;;;;;;;;9.96;100.00;99760.13;4975367;28;19918;-80
2024/03/20 18:29:55;;;;;;;;;;;;;;;10.05;100.00;99774.75;4991533;28;19922;-83
2024/03/20 18:32:20;;;;;;;;;;;;;;;10.07;100.00;99770.25;4992531;28;19917;-79
2024/03/20 18:34:45;;;;;;;;;;;;;;;10.11;100.00;99778.00;4992670;28;19918;-82
2024/03/20 18:37:10;;;;;;;;;;;;;;;10.13;100.00;99777.94;4992462;28;19918;-82
2024/03/20 18:39:36;;;;;;;;;;;;;;;10.14;100.00;99777.88;4992581;28;19925;-81
2024/03/20 18:42:02;;;;;;;;;;;;;;;10.18;100.00;99773.34;4992554;28;19925;-82
2024/03/20 18:44:28;;;;;;;;;;;;;;;10.23;100.00;99787.25;4991145;28;20344;-85
2024/03/20 18:46:53;;;;;;;;;;;;;;;10.27;100.00;99794.13;4992691;28;19936;-81
2024/03/20 18:49:18;;;;;;;;;;;;;;;10.31;100.00;99787.78;4992441;28;19961;-81
2024/03/20 18:51:44;;;;;;;;;;;;;;;10.32;100.00;99791.28;4992526;28;20000;-85
2024/03/20 18:54:09;;;;;;;;;;;;;;;10.33;100.00;99790.41;4992490;28;19949;-82
2024/03/20 18:56:34;;;;;;;;;;;;;;;10.36;100.00;99790.28;4992551;28;20289;-81
2024/03/20 18:59:00;;;;;;;;;;;;;;;10.37;100.00;99786.72;4991079;28;20000;-81
2024/03/20 19:01:28;;;;;;;;;;;;;;;10.39;100.00;99787.50;4992382;28;19918;-83
2024/03/20 19:03:54;;;;;;;;;;;;;;;10.40;100.00;99789.19;4992184;28;19922;-81
2024/03/20 19:06:22;;;;;;;;;;;;;;;10.43;100.00;99786.41;4992157;28;19964;-82
2024/03/20 19:08:50;;;;;;;;;;;;;;;10.44;100.00;99787.31;4992409;28;19918;-81
2024/03/20 19:11:19;;;;;;;;;;;;;;;10.44;100.00;99787.31;4991723;28;19922;-80
2024/03/20 19:13:45;;;;;;;;;;;;;;;10.46;100.00;99788.09;4991144;28;19953;-80
2024/03/20 19:16:10;;;;;;;;;;;;;;;10.48;100.00;99787.13;4992129;28;19964;-80
2024/03/20 19:18:36;;;;;;;;;;;;;;;10.51;100.00;99780.81;4992425;28;19922;-82
2024/03/20 19:21:03;;;;;;;;;;;;;;;10.52;100.00;99782.53;4991883;28;19921;-79
2024/03/20 19:23:33;;;;;;;;;;;;;;;10.56;100.00;99791.22;4974732;28;20386;-81